Naoussa — SVA5552 — position and weather

sailwx.info

Track history (hours):
 
Tides and Currents Weather Stations Pressure Air Temp Water Temp Dewpoint Dewpoint Depression Visibility Wind Speed Wind Dir Waves Ship Positions

Naoussa

Last reported at 2018-Jan-12 15:00 UTC. Time now 2018-Jan-18 06:16 UTC.
Position N 37°32' E 024°45'.

Length 78 m; draft 4 m.

Type: Ship (hazmat cat B). MMSI: 241216000.

Date/timePositionNaut miles runAvg speedWind from/ knotsBaromVisibWave heightAir tempDewpointWater temp
2018-Jan-12 15:00N 37°32' E 024°45'4 8.9
2018-Jan-12 14:30N 37°32' E 024°39'5 9.2
2018-Jan-12 14:00N 37°31' E 024°33'5 9.2
2018-Jan-12 13:30N 37°31' E 024°28'4 8.9
2018-Jan-12 13:00N 37°30' E 024°22'4 8.8
2018-Jan-12 12:30N 37°30' E 024°16'4 8.8
2018-Jan-12 12:00N 37°31' E 024°11'4 8.6
2018-Jan-12 11:30N 37°32' E 024°06'5 8.9
2018-Jan-12 11:00N 37°34' E 024°01'13 9.1
2018-Jan-12 09:32N 37°39' E 023°45'0 9.2
2018-Jan-12 09:30N 37°39' E 023°45'4 8.7
2018-Jan-12 09:00N 37°42' E 023°41'5 9.3
2018-Jan-12 08:30N 37°46' E 023°38'5 9.1
2018-Jan-12 08:00N 37°50' E 023°36'5 9.3
2018-Jan-12 07:30N 37°55' E 023°36'3 6.7
2018-Jan-12 07:00N 37°57' E 023°33'4 8.1
2018-Jan-12 06:30N 38°01' E 023°32'0 0.3
2018-Jan-12 06:00N 38°01' E 023°32'0 0.0
2018-Jan-12 05:30N 38°01' E 023°32'0 0.0
2018-Jan-12 05:00N 38°01' E 023°32'0 0.0
2018-Jan-12 04:30N 38°01' E 023°32'0 0.0
2018-Jan-12 04:00N 38°01' E 023°32'0 0.0
2018-Jan-12 03:30N 38°01' E 023°32'0 0.1
2018-Jan-12 03:00N 38°01' E 023°32'0 0.0
2018-Jan-12 02:30N 38°01' E 023°32'0 0.1
2018-Jan-12 02:00N 38°01' E 023°32'0 0.0
2018-Jan-12 01:30N 38°01' E 023°32'0 0.0
2018-Jan-12 01:00N 38°01' E 023°32'0 0.4
2018-Jan-12 00:30N 38°01' E 023°32'2 4.8
2018-Jan-12 00:00N 38°02' E 023°36'0 0.2
2018-Jan-11 23:30N 38°02' E 023°36'0 0.0
2018-Jan-11 23:00N 38°02' E 023°36'0 0.0
2018-Jan-11 22:30N 38°02' E 023°36'0 0.0
2018-Jan-11 22:00N 38°02' E 023°36'0 0.0
2018-Jan-11 21:30N 38°02' E 023°36'0 0.0
2018-Jan-11 21:00N 38°02' E 023°36'0 0.0
2018-Jan-11 20:30N 38°02' E 023°36'0 0.0
2018-Jan-11 20:00N 38°02' E 023°36'0 0.0
2018-Jan-11 19:30N 38°02' E 023°36'0 0.0
2018-Jan-11 19:00N 38°02' E 023°36'0 0.0
2018-Jan-11 18:30N 38°02' E 023°36'0 0.0
2018-Jan-11 18:00N 38°02' E 023°36'0 0.0
2018-Jan-11 17:30N 38°02' E 023°36'0 0.0
2018-Jan-11 17:00N 38°02' E 023°36'0 0.0
2018-Jan-11 16:30N 38°02' E 023°36'0 0.0
2018-Jan-11 15:54N 38°02' E 023°36'0 0.0
2018-Jan-11 15:30N 38°02' E 023°36'0 0.0
2018-Jan-11 15:00N 38°02' E 023°36'0 0.1
2018-Jan-11 14:30N 38°02' E 023°36'1 1.3
2018-Jan-11 13:57N 38°01' E 023°35'0 0.7
2018-Jan-11 13:30N 38°01' E 023°34'2 3.2
2018-Jan-11 12:59N 38°01' E 023°32'0 0.1
2018-Jan-11 12:29N 38°01' E 023°32'0 0.1
2018-Jan-11 11:59N 38°01' E 023°32'0 0.0
2018-Jan-11 11:29N 38°01' E 023°32'0 0.0
2018-Jan-11 10:59N 38°01' E 023°32'0 0.0
2018-Jan-11 10:29N 38°01' E 023°32'0 0.0
2018-Jan-11 09:59N 38°01' E 023°32'0 0.0
2018-Jan-11 09:26N 38°01' E 023°32'0 0.0
2018-Jan-11 08:59N 38°01' E 023°32'0 0.1
2018-Jan-11 08:29N 38°01' E 023°32'0 0.1
2018-Jan-11 07:59N 38°01' E 023°32'0 0.1
2018-Jan-11 07:29N 38°01' E 023°32'0 0.1
2018-Jan-11 06:59N 38°01' E 023°32'0 0.0
2018-Jan-11 06:29N 38°01' E 023°32'0 0.1
2018-Jan-11 05:59N 38°01' E 023°32'0 0.0
2018-Jan-11 05:29N 38°01' E 023°32'0 0.0
2018-Jan-11 04:59N 38°01' E 023°32'0 0.0
2018-Jan-11 04:29N 38°01' E 023°32'0 0.0
2018-Jan-11 03:59N 38°01' E 023°32'0 0.0
2018-Jan-11 03:29N 38°01' E 023°32'0 0.0
2018-Jan-11 02:59N 38°01' E 023°32'0 0.0
2018-Jan-11 02:29N 38°01' E 023°32'0 0.1
2018-Jan-11 01:59N 38°01' E 023°32'0 0.1
2018-Jan-11 01:29N 38°01' E 023°32'0 0.1
2018-Jan-11 00:59N 38°01' E 023°32'0 0.0
2018-Jan-11 00:26N 38°01' E 023°32'0 0.1
2018-Jan-10 23:59N 38°01' E 023°32'0 0.1
2018-Jan-10 23:29N 38°01' E 023°32'0 0.0
2018-Jan-10 22:59N 38°01' E 023°32'0 0.1
2018-Jan-10 22:29N 38°01' E 023°32'0 0.1
2018-Jan-10 21:59N 38°01' E 023°32'0 0.0
2018-Jan-10 21:29N 38°01' E 023°32'0 0.0
2018-Jan-10 20:59N 38°01' E 023°32'0 0.0
2018-Jan-10 20:29N 38°01' E 023°32'0 0.0
2018-Jan-10 19:59N 38°01' E 023°32'0 0.0
2018-Jan-10 19:29N 38°01' E 023°32'0 0.0
2018-Jan-10 18:59N 38°01' E 023°32'0 0.1
2018-Jan-10 18:29N 38°01' E 023°32'0 0.0
2018-Jan-10 17:59N 38°01' E 023°32'0 0.0
2018-Jan-10 17:29N 38°01' E 023°32'0 0.0
2018-Jan-10 16:59N 38°01' E 023°32'0 0.0
2018-Jan-10 16:29N 38°01' E 023°32'0 0.1
2018-Jan-10 15:59N 38°01' E 023°32'0 0.1
2018-Jan-10 15:29N 38°01' E 023°32'0 0.0
2018-Jan-10 14:59N 38°01' E 023°32'0 0.1
2018-Jan-10 14:29N 38°01' E 023°32'0 0.0
2018-Jan-10 13:59N 38°01' E 023°32'0 0.0
2018-Jan-10 13:29N 38°01' E 023°32'0 0.0
2018-Jan-10 12:59N 38°01' E 023°32'0 0.1
2018-Jan-10 12:29N 38°01' E 023°32'0 0.4
2018-Jan-10 12:01N 38°01' E 023°32'0 0.8
2018-Jan-10 11:29N 38°02' E 023°33'0 0.0
2018-Jan-10 10:59N 38°02' E 023°33'0 0.0
2018-Jan-10 10:29N 38°02' E 023°33'0 0.0
2018-Jan-10 09:59N 38°02' E 023°33'0 0.0
2018-Jan-10 09:29N 38°02' E 023°33'0 0.0
2018-Jan-10 08:59N 38°02' E 023°33'0 0.0
2018-Jan-10 08:26N 38°02' E 023°33'0 0.0
2018-Jan-10 07:59N 38°02' E 023°33'0 0.0
2018-Jan-10 07:29N 38°02' E 023°33'1 1.3
2018-Jan-10 07:00N 38°01' E 023°32'0 0.1
2018-Jan-10 06:31N 38°01' E 023°32'0 0.1
2018-Jan-10 06:00N 38°01' E 023°32'0 0.0
2018-Jan-10 05:30N 38°01' E 023°32'0 0.1
2018-Jan-10 05:00N 38°01' E 023°32'0 0.0
2018-Jan-10 04:31N 38°01' E 023°32'0 0.0
2018-Jan-10 04:01N 38°01' E 023°32'0 0.0
2018-Jan-10 03:31N 38°01' E 023°32'0 0.0
2018-Jan-10 03:01N 38°01' E 023°32'0 0.0
2018-Jan-10 02:30N 38°01' E 023°32'0 0.0
2018-Jan-10 02:01N 38°01' E 023°32'0 0.0
2018-Jan-10 01:30N 38°01' E 023°32'0 0.0
2018-Jan-10 01:00N 38°01' E 023°32'0 0.0
2018-Jan-10 00:30N 38°01' E 023°32'0 0.0
2018-Jan-10 00:01N 38°01' E 023°32'0 0.0
2018-Jan-09 23:31N 38°01' E 023°32'0 0.0
2018-Jan-09 23:01N 38°01' E 023°32'0 0.0
2018-Jan-09 22:31N 38°01' E 023°32'0 0.0
2018-Jan-09 22:00N 38°01' E 023°32'0 0.0
2018-Jan-09 21:31N 38°01' E 023°32'0 0.0
2018-Jan-09 21:00N 38°01' E 023°32'0 0.0
2018-Jan-09 20:31N 38°01' E 023°32'0 0.0
2018-Jan-09 20:01N 38°01' E 023°32'0 0.0
2018-Jan-09 19:30N 38°01' E 023°32'0 0.0
2018-Jan-09 19:01N 38°01' E 023°32'0 0.0
2018-Jan-09 18:31N 38°01' E 023°32'0 0.1
2018-Jan-09 18:00N 38°01' E 023°32'0 0.1
2018-Jan-09 17:30N 38°01' E 023°32'0 0.1
2018-Jan-09 17:01N 38°01' E 023°32'0 0.0
2018-Jan-09 16:30N 38°01' E 023°32'0 0.0
2018-Jan-09 16:01N 38°01' E 023°32'0 0.1
2018-Jan-09 15:30N 38°01' E 023°32'0 0.0
2018-Jan-09 15:00N 38°01' E 023°32'0 0.0
2018-Jan-09 14:30N 38°01' E 023°32'0 0.0
2018-Jan-09 14:00N 38°01' E 023°32'0 0.0
2018-Jan-09 13:30N 38°01' E 023°32'0 0.1
2018-Jan-09 13:01N 38°01' E 023°32'0 0.1
2018-Jan-09 12:30N 38°01' E 023°32'0 0.0
2018-Jan-09 12:00N 38°01' E 023°32'0 0.0
2018-Jan-09 11:30N 38°01' E 023°32'0 0.1
2018-Jan-09 11:00N 38°01' E 023°32'0 0.0
2018-Jan-09 10:30N 38°01' E 023°32'0 0.0
2018-Jan-09 10:01N 38°01' E 023°32'0 0.0
2018-Jan-09 09:30N 38°01' E 023°32'0 0.0
2018-Jan-09 09:01N 38°01' E 023°32'0 0.0
2018-Jan-09 08:30N 38°01' E 023°32'0 0.0
2018-Jan-09 08:01N 38°01' E 023°32'1 2.4
2018-Jan-09 07:31N 38°00' E 023°33'4 7.9
2018-Jan-09 07:01N 37°57' E 023°35'2 4.3
2018-Jan-09 06:30N 37°55' E 023°36'0 0.7
2018-Jan-09 06:01N 37°55' E 023°37'1 2.2
2018-Jan-09 05:30N 37°54' E 023°37'2 3.2
2018-Jan-09 05:00N 37°52' E 023°38'3 5.1
2018-Jan-09 04:31N 37°50' E 023°40'3 6.9
2018-Jan-09 04:00N 37°47' E 023°41'3 6.8
2018-Jan-09 03:30N 37°44' E 023°44'4 7.2
2018-Jan-09 02:56N 37°40' E 023°46'21 7.9
2018-Jan-09 00:16N 37°32' E 024°11'11 8.1
2018-Jan-08 22:58N 37°30' E 024°24'4 8.0
2018-Jan-08 22:30N 37°31' E 024°29'5 8.1
2018-Jan-08 21:53N 37°31' E 024°35'3 9.3
2018-Jan-08 21:31N 37°31' E 024°39'5 9.6
2018-Jan-08 21:01N 37°32' E 024°45'510.0
2018-Jan-08 20:30N 37°32' E 024°52'7 9.8
2018-Jan-08 19:50N 37°31' E 024°60'3 9.8
2018-Jan-08 19:30N 37°30' E 025°04'510.1
2018-Jan-08 19:00N 37°29' E 025°10'5 9.8
2018-Jan-08 18:30N 37°28' E 025°16'3 5.4
2018-Jan-08 18:00N 37°27' E 025°19'0 0.0
2018-Jan-08 17:29N 37°27' E 025°19'0 0.0
2018-Jan-08 16:59N 37°27' E 025°19'0 0.0
2018-Jan-08 16:29N 37°27' E 025°19'0 0.0
2018-Jan-08 15:59N 37°27' E 025°19'0 0.1
2018-Jan-08 15:29N 37°27' E 025°19'0 0.0
2018-Jan-08 14:59N 37°27' E 025°19'0 0.0
2018-Jan-08 14:29N 37°27' E 025°19'0 0.0
2018-Jan-08 13:59N 37°27' E 025°19'0 0.0
2018-Jan-08 13:29N 37°27' E 025°19'0 0.0
2018-Jan-08 12:59N 37°27' E 025°19'0 0.0
2018-Jan-08 12:26N 37°27' E 025°19'0 0.1
2018-Jan-08 11:59N 37°27' E 025°19'1 1.0
2018-Jan-08 11:30N 37°26' E 025°19'0 0.0
2018-Jan-08 11:00N 37°26' E 025°19'0 0.0
2018-Jan-08 10:30N 37°26' E 025°19'0 0.0
2018-Jan-08 10:00N 37°26' E 025°19'0 0.0
2018-Jan-08 09:30N 37°26' E 025°19'0 0.0
2018-Jan-08 09:00N 37°26' E 025°19'0 0.0
2018-Jan-08 08:30N 37°26' E 025°19'0 0.0
2018-Jan-08 08:00N 37°26' E 025°19'0 0.0
2018-Jan-08 07:30N 37°26' E 025°19'0 0.0
2018-Jan-08 07:00N 37°26' E 025°19'0 0.0
2018-Jan-08 06:30N 37°26' E 025°19'0 0.1
2018-Jan-08 06:00N 37°26' E 025°19'7 0.6
2018-Jan-07 16:49N 37°32' E 025°25'3 9.4
2018-Jan-07 16:30N 37°31' E 025°29'5 9.1
2018-Jan-07 16:00N 37°31' E 025°35'4 9.0
2018-Jan-07 15:30N 37°31' E 025°41'5 9.2
2018-Jan-07 14:55N 37°30' E 025°47'4 9.4
2018-Jan-07 14:30N 37°30' E 025°52'5 9.6
2018-Jan-07 14:00N 37°30' E 025°58'5 9.3
2018-Jan-07 13:30N 37°30' E 026°04'5 9.0
2018-Jan-07 13:00N 37°31' E 026°09'4 8.6
2018-Jan-07 12:30N 37°33' E 026°14'4 8.0
2018-Jan-07 12:00N 37°36' E 026°18'0 0.2
2018-Jan-07 11:28N 37°36' E 026°17'0 0.0
2018-Jan-07 11:00N 37°36' E 026°17'0 0.0
2018-Jan-07 10:30N 37°36' E 026°17'0 0.0
2018-Jan-07 10:00N 37°36' E 026°17'0 0.0
2018-Jan-07 09:30N 37°36' E 026°17'0 0.0
2018-Jan-07 09:00N 37°36' E 026°17'0 0.0
2018-Jan-07 08:30N 37°36' E 026°17'0 0.0
2018-Jan-07 07:56N 37°36' E 026°17'0 0.0
2018-Jan-07 07:30N 37°36' E 026°17'0 0.0
2018-Jan-07 07:00N 37°36' E 026°17'0 0.0
2018-Jan-07 06:30N 37°36' E 026°17'0 0.2
2018-Jan-07 06:00N 37°36' E 026°18'1 1.5
2018-Jan-07 05:29N 37°37' E 026°18'0 0.0
2018-Jan-07 03:09N 37°37' E 026°18'0 0.0
2018-Jan-07 03:00N 37°37' E 026°18'0 0.0
2018-Jan-07 02:30N 37°37' E 026°18'0 0.1
2018-Jan-07 02:00N 37°37' E 026°18'0 0.1
2018-Jan-07 01:30N 37°37' E 026°19'0 0.0
2018-Jan-07 00:30N 37°37' E 026°19'0 0.0
2018-Jan-07 00:00N 37°37' E 026°19'0 0.1
2018-Jan-06 23:30N 37°37' E 026°18'0 0.1
2018-Jan-06 23:00N 37°37' E 026°18'0 0.1
2018-Jan-06 22:30N 37°37' E 026°18'0 0.1
2018-Jan-06 22:00N 37°37' E 026°19'0 0.0
2018-Jan-06 21:30N 37°37' E 026°19'0 0.0
2018-Jan-06 21:00N 37°37' E 026°19'0 0.0
2018-Jan-06 20:25N 37°37' E 026°19'0 0.0
2018-Jan-06 19:56N 37°37' E 026°19'0 0.0
2018-Jan-06 19:30N 37°37' E 026°19'0 0.0
2018-Jan-06 19:00N 37°37' E 026°19'0 0.0
2018-Jan-06 18:30N 37°37' E 026°19'0 0.1
2018-Jan-06 18:00N 37°37' E 026°19'0 0.1
2018-Jan-06 17:30N 37°37' E 026°18'0 0.0
2018-Jan-06 17:00N 37°37' E 026°18'0 0.0
2018-Jan-06 16:26N 37°37' E 026°18'0 0.0
2018-Jan-06 16:00N 37°37' E 026°18'0 0.0
2018-Jan-06 15:30N 37°37' E 026°18'0 0.0
2018-Jan-06 15:00N 37°37' E 026°18'0 0.0
2018-Jan-06 14:30N 37°37' E 026°18'0 0.0
2018-Jan-06 14:00N 37°37' E 026°18'0 0.0
2018-Jan-06 13:30N 37°37' E 026°18'0 0.0
2018-Jan-06 13:00N 37°37' E 026°18'0 0.0
2018-Jan-06 12:30N 37°37' E 026°18'0 0.0
2018-Jan-06 12:00N 37°37' E 026°18'0 0.0
2018-Jan-06 11:30N 37°37' E 026°18'0 0.0
2018-Jan-06 11:00N 37°37' E 026°18'0 0.0
2018-Jan-06 10:30N 37°37' E 026°18'0 0.0
2018-Jan-06 10:00N 37°37' E 026°18'0 0.0
2018-Jan-06 09:30N 37°37' E 026°18'0 0.0
2018-Jan-06 09:00N 37°37' E 026°18'0 0.0
2018-Jan-06 08:29N 37°37' E 026°18'0 0.0
2018-Jan-06 08:00N 37°37' E 026°18'0 0.0
2018-Jan-06 07:30N 37°37' E 026°18'0 0.0
2018-Jan-06 06:58N 37°37' E 026°18'0 0.1
2018-Jan-06 06:30N 37°37' E 026°18'0 0.0
2018-Jan-06 05:59N 37°37' E 026°18'0 0.0
2018-Jan-06 05:30N 37°37' E 026°18'0 0.0
2018-Jan-06 04:59N 37°37' E 026°18'0 0.0
2018-Jan-06 04:29N 37°37' E 026°18'0 0.0
2018-Jan-06 04:00N 37°37' E 026°19'0 0.1
2018-Jan-06 03:30N 37°37' E 026°18'0 0.0
2018-Jan-06 03:00N 37°37' E 026°18'0 0.0
2018-Jan-06 02:30N 37°37' E 026°19'0 0.0
2018-Jan-06 02:00N 37°37' E 026°18'0 0.0
2018-Jan-06 01:30N 37°37' E 026°18'0 0.0
2018-Jan-06 00:59N 37°37' E 026°18'0 0.0
2018-Jan-06 00:30N 37°37' E 026°18'0 0.0
2018-Jan-05 23:59N 37°37' E 026°18'0 0.0
2018-Jan-05 23:30N 37°37' E 026°18'0 0.1
2018-Jan-05 23:00N 37°37' E 026°18'0 0.0
2018-Jan-05 22:30N 37°37' E 026°18'0 0.0
2018-Jan-05 21:59N 37°37' E 026°18'0 0.0
2018-Jan-05 21:30N 37°37' E 026°18'0 0.0
2018-Jan-05 21:00N 37°37' E 026°18'0 0.0
2018-Jan-05 20:27N 37°37' E 026°18'0 0.0
2018-Jan-05 19:53N 37°37' E 026°18'0 0.0
2018-Jan-05 19:24N 37°37' E 026°18'0 0.0
2018-Jan-05 19:00N 37°37' E 026°18'0 0.0
2018-Jan-05 18:30N 37°37' E 026°18'0 0.0
2018-Jan-05 18:00N 37°37' E 026°18'0 0.0
2018-Jan-05 17:30N 37°37' E 026°18'0 0.1
2018-Jan-05 17:00N 37°37' E 026°19'3 5.7
2018-Jan-05 16:30N 37°35' E 026°16'5 9.4
2018-Jan-05 16:00N 37°32' E 026°12'5 9.0
2018-Jan-05 15:30N 37°28' E 026°08'4 8.7
2018-Jan-05 15:00N 37°25' E 026°04'4 7.6
2018-Jan-05 14:30N 37°22' E 026°01'3 6.0
2018-Jan-05 14:00N 37°20' E 025°58'3 5.8
2018-Jan-05 13:30N 37°18' E 025°56'3 5.4
2018-Jan-05 13:00N 37°16' E 025°54'3 5.2
2018-Jan-05 12:30N 37°14' E 025°52'2 4.9
2018-Jan-05 12:01N 37°12' E 025°50'2 4.8
2018-Jan-05 11:31N 37°10' E 025°48'2 4.6
2018-Jan-05 11:00N 37°09' E 025°46'2 4.1
2018-Jan-05 10:31N 37°07' E 025°45'2 4.5
2018-Jan-05 10:00N 37°05' E 025°46'3 5.0
2018-Jan-05 09:30N 37°02' E 025°47'2 5.0
2018-Jan-05 09:01N 37°00' E 025°49'3 5.0
2018-Jan-05 08:30N 36°58' E 025°51'2 4.8
2018-Jan-05 08:00N 36°57' E 025°53'2 4.9
2018-Jan-05 07:30N 36°55' E 025°55'2 4.6
2018-Jan-05 07:00N 36°54' E 025°58'0 0.9
2018-Jan-05 06:30N 36°54' E 025°58'0 0.1
2018-Jan-05 06:00N 36°54' E 025°58'0 0.0
2018-Jan-05 05:30N 36°54' E 025°58'0 0.0
2018-Jan-05 05:00N 36°54' E 025°58'0 0.0
2018-Jan-05 04:31N 36°54' E 025°58'0 0.0
2018-Jan-05 04:01N 36°54' E 025°58'0 0.1
2018-Jan-05 03:30N 36°54' E 025°58'0 0.1
2018-Jan-05 03:00N 36°54' E 025°58'0 0.2
2018-Jan-05 02:30N 36°54' E 025°58'0 0.1
2018-Jan-05 02:00N 36°54' E 025°58'0 0.0
2018-Jan-05 01:30N 36°54' E 025°58'0 0.0
2018-Jan-05 00:57N 36°54' E 025°58'0 0.0
2018-Jan-05 00:30N 36°54' E 025°58'0 0.0
2018-Jan-05 00:00N 36°54' E 025°58'0 0.0
2018-Jan-04 23:30N 36°54' E 025°58'0 0.0
2018-Jan-04 22:57N 36°54' E 025°58'0 0.0
2018-Jan-04 22:31N 36°54' E 025°58'0 0.1
2018-Jan-04 22:00N 36°54' E 025°58'0 0.1
2018-Jan-04 21:30N 36°54' E 025°58'0 0.1
2018-Jan-04 20:57N 36°54' E 025°58'0 0.0
2018-Jan-04 20:30N 36°54' E 025°58'0 0.1
2018-Jan-04 20:01N 36°54' E 025°58'0 0.2
2018-Jan-04 19:30N 36°54' E 025°58'0 0.0
2018-Jan-04 19:00N 36°54' E 025°58'0 0.1
2018-Jan-04 18:27N 36°54' E 025°58'0 0.0
2018-Jan-04 18:00N 36°54' E 025°58'0 0.1
2018-Jan-04 17:30N 36°54' E 025°58'0 0.3
2018-Jan-04 17:00N 36°54' E 025°58'0 0.3
2018-Jan-04 16:30N 36°54' E 025°58'0 0.1
2018-Jan-04 16:00N 36°54' E 025°58'0 0.1
2018-Jan-04 15:30N 36°54' E 025°58'0 0.0
2018-Jan-04 15:00N 36°54' E 025°58'0 0.2
2018-Jan-04 14:28N 36°54' E 025°58'2 4.2
2018-Jan-04 14:00N 36°55' E 025°56'3 6.1
2018-Jan-04 13:30N 36°56' E 025°53'4 8.5
2018-Jan-04 13:00N 36°53' E 025°50'3 3.9
2018-Jan-04 12:09N 36°50' E 025°52'0 0.0
2018-Jan-04 11:57N 36°50' E 025°52'0 0.0
2018-Jan-04 11:27N 36°50' E 025°52'0 0.0
2018-Jan-04 11:00N 36°50' E 025°52'0 0.0
2018-Jan-04 10:30N 36°50' E 025°52'0 0.0
2018-Jan-04 10:00N 36°50' E 025°52'0 0.0
2018-Jan-04 09:30N 36°50' E 025°52'0 0.0
2018-Jan-04 09:00N 36°50' E 025°52'0 0.0
2018-Jan-04 08:30N 36°50' E 025°52'0 0.0
2018-Jan-04 08:00N 36°50' E 025°52'0 0.0
2018-Jan-04 07:30N 36°50' E 025°52'0 0.0
2018-Jan-04 06:57N 36°50' E 025°52'0 0.0
2018-Jan-04 06:30N 36°50' E 025°52'0 0.0
2018-Jan-04 06:00N 36°50' E 025°52'0 0.0
2018-Jan-04 05:30N 36°50' E 025°52'0 0.0
2018-Jan-04 04:51N 36°50' E 025°52'0 0.0
2018-Jan-04 04:24N 36°50' E 025°52'0 0.0
2018-Jan-04 03:57N 36°50' E 025°52'0 0.0
2018-Jan-04 03:30N 36°50' E 025°52'0 0.0
2018-Jan-04 03:00N 36°50' E 025°52'0 0.0
2018-Jan-04 02:27N 36°50' E 025°52'0 0.0
2018-Jan-04 02:00N 36°50' E 025°52'0 0.0
2018-Jan-04 01:30N 36°50' E 025°52'0 0.0
2018-Jan-04 01:00N 36°50' E 025°52'0 0.0
2018-Jan-04 00:30N 36°50' E 025°52'0 0.0
2018-Jan-04 00:00N 36°50' E 025°52'0 0.0
2018-Jan-03 23:30N 36°50' E 025°52'0 0.0
2018-Jan-03 23:00N 36°50' E 025°52'0 0.0
2018-Jan-03 22:30N 36°50' E 025°52'0 0.0
2018-Jan-03 22:00N 36°50' E 025°52'0 0.0
2018-Jan-03 21:30N 36°50' E 025°52'0 0.0
2018-Jan-03 21:00N 36°50' E 025°52'0 0.0
2018-Jan-03 20:30N 36°50' E 025°52'0 0.0
2018-Jan-03 20:00N 36°50' E 025°52'0 0.0
2018-Jan-03 19:30N 36°50' E 025°52'0 0.0
2018-Jan-03 19:00N 36°50' E 025°52'0 0.0
2018-Jan-03 18:30N 36°50' E 025°52'0 0.0
2018-Jan-03 18:00N 36°50' E 025°52'0 0.0
2018-Jan-03 17:30N 36°50' E 025°52'0 0.0
2018-Jan-03 17:00N 36°50' E 025°52'0 0.0
2018-Jan-03 16:30N 36°50' E 025°52'0 0.0
2018-Jan-03 16:00N 36°50' E 025°52'0 0.0
2018-Jan-03 15:30N 36°50' E 025°52'0 0.0
2018-Jan-03 15:00N 36°50' E 025°52'0 0.0
2018-Jan-03 14:30N 36°50' E 025°52'0 0.0
2018-Jan-03 14:00N 36°50' E 025°52'0 0.0
2018-Jan-03 13:30N 36°50' E 025°52'0 0.0
2018-Jan-03 13:00N 36°50' E 025°52'0 0.0
2018-Jan-03 12:30N 36°50' E 025°52'0 0.0
2018-Jan-03 11:54N 36°50' E 025°52'0 0.0
2018-Jan-03 11:24N 36°50' E 025°52'0 0.0
2018-Jan-03 10:57N 36°50' E 025°52'0 0.0
2018-Jan-03 10:30N 36°50' E 025°52'0 0.0
2018-Jan-03 10:00N 36°50' E 025°52'0 0.0
2018-Jan-03 09:30N 36°50' E 025°52'0 0.0
2018-Jan-03 09:00N 36°50' E 025°52'0 0.0
2018-Jan-03 08:30N 36°50' E 025°52'0 0.0
2018-Jan-03 07:54N 36°50' E 025°52'1 2.8
2018-Jan-03 07:30N 36°50' E 025°50'0 0.6
2018-Jan-03 06:59N 36°49' E 025°51'0 0.1
2018-Jan-03 06:29N 36°49' E 025°51'0 0.0
2018-Jan-03 05:59N 36°49' E 025°51'0 0.0
2018-Jan-03 05:29N 36°49' E 025°51'0 0.0
2018-Jan-03 04:59N 36°49' E 025°51'0 0.0
2018-Jan-03 04:29N 36°49' E 025°51'0 0.0
2018-Jan-03 03:59N 36°49' E 025°51'0 0.0
2018-Jan-03 03:26N 36°49' E 025°51'0 0.0
2018-Jan-03 02:59N 36°49' E 025°51'0 0.0
2018-Jan-03 02:29N 36°49' E 025°51'0 0.0
2018-Jan-03 01:59N 36°49' E 025°51'0 0.0
2018-Jan-03 01:29N 36°49' E 025°51'0 0.0
2018-Jan-03 00:59N 36°49' E 025°51'0 0.0
2018-Jan-03 00:29N 36°49' E 025°51'0 0.0
2018-Jan-02 23:59N 36°49' E 025°51'0 0.8
2018-Jan-02 23:30N 36°50' E 025°50'2 4.5
2018-Jan-02 23:00N 36°52' E 025°49'3 6.9
2018-Jan-02 22:30N 36°54' E 025°52'4 7.2
2018-Jan-02 22:00N 36°56' E 025°56'4 7.5
2018-Jan-02 21:30N 36°58' E 026°00'4 7.5
2018-Jan-02 21:00N 36°58' E 026°05'4 7.7
2018-Jan-02 20:30N 36°57' E 026°10'4 7.2
2018-Jan-02 19:59N 36°55' E 026°14'3 7.0
2018-Jan-02 19:30N 36°53' E 026°16'3 6.5
2018-Jan-02 19:00N 36°50' E 026°19'3 6.1
2018-Jan-02 18:30N 36°48' E 026°21'3 6.2
2018-Jan-02 18:00N 36°45' E 026°24'3 6.5
2018-Jan-02 17:30N 36°42' E 026°25'4 7.2
2018-Jan-02 17:00N 36°39' E 026°27'5 7.7
2018-Jan-02 16:25N 36°36' E 026°31'4 8.5
2018-Jan-02 15:59N 36°32' E 026°31'4 8.4
2018-Jan-02 15:28N 36°31' E 026°25'  
Track history (hours):
 
Tides and Currents Weather Stations Pressure Air Temp Water Temp Dewpoint Dewpoint Depression Visibility Wind Speed Wind Dir Waves Ship Positions

Naoussa

Last reported at 2018-Jan-12 15:00 UTC. Time now 2018-Jan-18 06:16 UTC.
Position N 37°32' E 024°45'.

Length 78 m; draft 4 m.

Type: Ship (hazmat cat B). MMSI: 241216000.

Date/timePositionNaut miles runAvg speedWind from/ knotsBaromVisibWave heightAir tempDewpointWater temp
2018-Jan-12 15:00N 37°32' E 024°45'4 8.9
2018-Jan-12 14:30N 37°32' E 024°39'5 9.2
2018-Jan-12 14:00N 37°31' E 024°33'5 9.2
2018-Jan-12 13:30N 37°31' E 024°28'4 8.9
2018-Jan-12 13:00N 37°30' E 024°22'4 8.8
2018-Jan-12 12:30N 37°30' E 024°16'4 8.8
2018-Jan-12 12:00N 37°31' E 024°11'4 8.6
2018-Jan-12 11:30N 37°32' E 024°06'5 8.9
2018-Jan-12 11:00N 37°34' E 024°01'13 9.1
2018-Jan-12 09:32N 37°39' E 023°45'0 9.2
2018-Jan-12 09:30N 37°39' E 023°45'4 8.7
2018-Jan-12 09:00N 37°42' E 023°41'5 9.3
2018-Jan-12 08:30N 37°46' E 023°38'5 9.1
2018-Jan-12 08:00N 37°50' E 023°36'5 9.3
2018-Jan-12 07:30N 37°55' E 023°36'3 6.7
2018-Jan-12 07:00N 37°57' E 023°33'4 8.1
2018-Jan-12 06:30N 38°01' E 023°32'0 0.3
2018-Jan-12 06:00N 38°01' E 023°32'0 0.0
2018-Jan-12 05:30N 38°01' E 023°32'0 0.0
2018-Jan-12 05:00N 38°01' E 023°32'0 0.0
2018-Jan-12 04:30N 38°01' E 023°32'0 0.0
2018-Jan-12 04:00N 38°01' E 023°32'0 0.0
2018-Jan-12 03:30N 38°01' E 023°32'0 0.1
2018-Jan-12 03:00N 38°01' E 023°32'0 0.0
2018-Jan-12 02:30N 38°01' E 023°32'0 0.1
2018-Jan-12 02:00N 38°01' E 023°32'0 0.0
2018-Jan-12 01:30N 38°01' E 023°32'0 0.0
2018-Jan-12 01:00N 38°01' E 023°32'0 0.4
2018-Jan-12 00:30N 38°01' E 023°32'2 4.8
2018-Jan-12 00:00N 38°02' E 023°36'0 0.2
2018-Jan-11 23:30N 38°02' E 023°36'0 0.0
2018-Jan-11 23:00N 38°02' E 023°36'0 0.0
2018-Jan-11 22:30N 38°02' E 023°36'0 0.0
2018-Jan-11 22:00N 38°02' E 023°36'0 0.0
2018-Jan-11 21:30N 38°02' E 023°36'0 0.0
2018-Jan-11 21:00N 38°02' E 023°36'0 0.0
2018-Jan-11 20:30N 38°02' E 023°36'0 0.0
2018-Jan-11 20:00N 38°02' E 023°36'0 0.0
2018-Jan-11 19:30N 38°02' E 023°36'0 0.0
2018-Jan-11 19:00N 38°02' E 023°36'0 0.0
2018-Jan-11 18:30N 38°02' E 023°36'0 0.0
2018-Jan-11 18:00N 38°02' E 023°36'0 0.0
2018-Jan-11 17:30N 38°02' E 023°36'0 0.0
2018-Jan-11 17:00N 38°02' E 023°36'0 0.0
2018-Jan-11 16:30N 38°02' E 023°36'0 0.0
2018-Jan-11 15:54N 38°02' E 023°36'0 0.0
2018-Jan-11 15:30N 38°02' E 023°36'0 0.0
2018-Jan-11 15:00N 38°02' E 023°36'0 0.1
2018-Jan-11 14:30N 38°02' E 023°36'1 1.3
2018-Jan-11 13:57N 38°01' E 023°35'0 0.7
2018-Jan-11 13:30N 38°01' E 023°34'2 3.2
2018-Jan-11 12:59N 38°01' E 023°32'0 0.1
2018-Jan-11 12:29N 38°01' E 023°32'0 0.1
2018-Jan-11 11:59N 38°01' E 023°32'0 0.0
2018-Jan-11 11:29N 38°01' E 023°32'0 0.0
2018-Jan-11 10:59N 38°01' E 023°32'0 0.0
2018-Jan-11 10:29N 38°01' E 023°32'0 0.0
2018-Jan-11 09:59N 38°01' E 023°32'0 0.0
2018-Jan-11 09:26N 38°01' E 023°32'0 0.0
2018-Jan-11 08:59N 38°01' E 023°32'0 0.1
2018-Jan-11 08:29N 38°01' E 023°32'0 0.1
2018-Jan-11 07:59N 38°01' E 023°32'0 0.1
2018-Jan-11 07:29N 38°01' E 023°32'0 0.1
2018-Jan-11 06:59N 38°01' E 023°32'0 0.0
2018-Jan-11 06:29N 38°01' E 023°32'0 0.1
2018-Jan-11 05:59N 38°01' E 023°32'0 0.0
2018-Jan-11 05:29N 38°01' E 023°32'0 0.0
2018-Jan-11 04:59N 38°01' E 023°32'0 0.0
2018-Jan-11 04:29N 38°01' E 023°32'0 0.0
2018-Jan-11 03:59N 38°01' E 023°32'0 0.0
2018-Jan-11 03:29N 38°01' E 023°32'0 0.0
2018-Jan-11 02:59N 38°01' E 023°32'0 0.0
2018-Jan-11 02:29N 38°01' E 023°32'0 0.1
2018-Jan-11 01:59N 38°01' E 023°32'0 0.1
2018-Jan-11 01:29N 38°01' E 023°32'0 0.1
2018-Jan-11 00:59N 38°01' E 023°32'0 0.0
2018-Jan-11 00:26N 38°01' E 023°32'0 0.1
2018-Jan-10 23:59N 38°01' E 023°32'0 0.1
2018-Jan-10 23:29N 38°01' E 023°32'0 0.0
2018-Jan-10 22:59N 38°01' E 023°32'0 0.1
2018-Jan-10 22:29N 38°01' E 023°32'0 0.1
2018-Jan-10 21:59N 38°01' E 023°32'0 0.0
2018-Jan-10 21:29N 38°01' E 023°32'0 0.0
2018-Jan-10 20:59N 38°01' E 023°32'0 0.0
2018-Jan-10 20:29N 38°01' E 023°32'0 0.0
2018-Jan-10 19:59N 38°01' E 023°32'0 0.0
2018-Jan-10 19:29N 38°01' E 023°32'0 0.0
2018-Jan-10 18:59N 38°01' E 023°32'0 0.1
2018-Jan-10 18:29N 38°01' E 023°32'0 0.0
2018-Jan-10 17:59N 38°01' E 023°32'0 0.0
2018-Jan-10 17:29N 38°01' E 023°32'0 0.0
2018-Jan-10 16:59N 38°01' E 023°32'0 0.0
2018-Jan-10 16:29N 38°01' E 023°32'0 0.1
2018-Jan-10 15:59N 38°01' E 023°32'0 0.1
2018-Jan-10 15:29N 38°01' E 023°32'0 0.0
2018-Jan-10 14:59N 38°01' E 023°32'0 0.1
2018-Jan-10 14:29N 38°01' E 023°32'0 0.0
2018-Jan-10 13:59N 38°01' E 023°32'0 0.0
2018-Jan-10 13:29N 38°01' E 023°32'0 0.0
2018-Jan-10 12:59N 38°01' E 023°32'0 0.1
2018-Jan-10 12:29N 38°01' E 023°32'0 0.4
2018-Jan-10 12:01N 38°01' E 023°32'0 0.8
2018-Jan-10 11:29N 38°02' E 023°33'0 0.0
2018-Jan-10 10:59N 38°02' E 023°33'0 0.0
2018-Jan-10 10:29N 38°02' E 023°33'0 0.0
2018-Jan-10 09:59N 38°02' E 023°33'0 0.0
2018-Jan-10 09:29N 38°02' E 023°33'0 0.0
2018-Jan-10 08:59N 38°02' E 023°33'0 0.0
2018-Jan-10 08:26N 38°02' E 023°33'0 0.0
2018-Jan-10 07:59N 38°02' E 023°33'0 0.0
2018-Jan-10 07:29N 38°02' E 023°33'1 1.3
2018-Jan-10 07:00N 38°01' E 023°32'0 0.1
2018-Jan-10 06:31N 38°01' E 023°32'0 0.1
2018-Jan-10 06:00N 38°01' E 023°32'0 0.0
2018-Jan-10 05:30N 38°01' E 023°32'0 0.1
2018-Jan-10 05:00N 38°01' E 023°32'0 0.0
2018-Jan-10 04:31N 38°01' E 023°32'0 0.0
2018-Jan-10 04:01N 38°01' E 023°32'0 0.0
2018-Jan-10 03:31N 38°01' E 023°32'0 0.0
2018-Jan-10 03:01N 38°01' E 023°32'0 0.0
2018-Jan-10 02:30N 38°01' E 023°32'0 0.0
2018-Jan-10 02:01N 38°01' E 023°32'0 0.0
2018-Jan-10 01:30N 38°01' E 023°32'0 0.0
2018-Jan-10 01:00N 38°01' E 023°32'0 0.0
2018-Jan-10 00:30N 38°01' E 023°32'0 0.0
2018-Jan-10 00:01N 38°01' E 023°32'0 0.0
2018-Jan-09 23:31N 38°01' E 023°32'0 0.0
2018-Jan-09 23:01N 38°01' E 023°32'0 0.0
2018-Jan-09 22:31N 38°01' E 023°32'0 0.0
2018-Jan-09 22:00N 38°01' E 023°32'0 0.0
2018-Jan-09 21:31N 38°01' E 023°32'0 0.0
2018-Jan-09 21:00N 38°01' E 023°32'0 0.0
2018-Jan-09 20:31N 38°01' E 023°32'0 0.0
2018-Jan-09 20:01N 38°01' E 023°32'0 0.0
2018-Jan-09 19:30N 38°01' E 023°32'0 0.0
2018-Jan-09 19:01N 38°01' E 023°32'0 0.0
2018-Jan-09 18:31N 38°01' E 023°32'0 0.1
2018-Jan-09 18:00N 38°01' E 023°32'0 0.1
2018-Jan-09 17:30N 38°01' E 023°32'0 0.1
2018-Jan-09 17:01N 38°01' E 023°32'0 0.0
2018-Jan-09 16:30N 38°01' E 023°32'0 0.0
2018-Jan-09 16:01N 38°01' E 023°32'0 0.1
2018-Jan-09 15:30N 38°01' E 023°32'0 0.0
2018-Jan-09 15:00N 38°01' E 023°32'0 0.0
2018-Jan-09 14:30N 38°01' E 023°32'0 0.0
2018-Jan-09 14:00N 38°01' E 023°32'0 0.0
2018-Jan-09 13:30N 38°01' E 023°32'0 0.1
2018-Jan-09 13:01N 38°01' E 023°32'0 0.1
2018-Jan-09 12:30N 38°01' E 023°32'0 0.0
2018-Jan-09 12:00N 38°01' E 023°32'0 0.0
2018-Jan-09 11:30N 38°01' E 023°32'0 0.1
2018-Jan-09 11:00N 38°01' E 023°32'0 0.0
2018-Jan-09 10:30N 38°01' E 023°32'0 0.0
2018-Jan-09 10:01N 38°01' E 023°32'0 0.0
2018-Jan-09 09:30N 38°01' E 023°32'0 0.0
2018-Jan-09 09:01N 38°01' E 023°32'0 0.0
2018-Jan-09 08:30N 38°01' E 023°32'0 0.0
2018-Jan-09 08:01N 38°01' E 023°32'1 2.4
2018-Jan-09 07:31N 38°00' E 023°33'4 7.9
2018-Jan-09 07:01N 37°57' E 023°35'2 4.3
2018-Jan-09 06:30N 37°55' E 023°36'0 0.7
2018-Jan-09 06:01N 37°55' E 023°37'1 2.2
2018-Jan-09 05:30N 37°54' E 023°37'2 3.2
2018-Jan-09 05:00N 37°52' E 023°38'3 5.1
2018-Jan-09 04:31N 37°50' E 023°40'3 6.9
2018-Jan-09 04:00N 37°47' E 023°41'3 6.8
2018-Jan-09 03:30N 37°44' E 023°44'4 7.2
2018-Jan-09 02:56N 37°40' E 023°46'21 7.9
2018-Jan-09 00:16N 37°32' E 024°11'11 8.1
2018-Jan-08 22:58N 37°30' E 024°24'4 8.0
2018-Jan-08 22:30N 37°31' E 024°29'5 8.1
2018-Jan-08 21:53N 37°31' E 024°35'3 9.3
2018-Jan-08 21:31N 37°31' E 024°39'5 9.6
2018-Jan-08 21:01N 37°32' E 024°45'510.0
2018-Jan-08 20:30N 37°32' E 024°52'7 9.8
2018-Jan-08 19:50N 37°31' E 024°60'3 9.8
2018-Jan-08 19:30N 37°30' E 025°04'510.1
2018-Jan-08 19:00N 37°29' E 025°10'5 9.8
2018-Jan-08 18:30N 37°28' E 025°16'3 5.4
2018-Jan-08 18:00N 37°27' E 025°19'0 0.0
2018-Jan-08 17:29N 37°27' E 025°19'0 0.0
2018-Jan-08 16:59N 37°27' E 025°19'0 0.0
2018-Jan-08 16:29N 37°27' E 025°19'0 0.0
2018-Jan-08 15:59N 37°27' E 025°19'0 0.1
2018-Jan-08 15:29N 37°27' E 025°19'0 0.0
2018-Jan-08 14:59N 37°27' E 025°19'0 0.0
2018-Jan-08 14:29N 37°27' E 025°19'0 0.0
2018-Jan-08 13:59N 37°27' E 025°19'0 0.0
2018-Jan-08 13:29N 37°27' E 025°19'0 0.0
2018-Jan-08 12:59N 37°27' E 025°19'0 0.0
2018-Jan-08 12:26N 37°27' E 025°19'0 0.1
2018-Jan-08 11:59N 37°27' E 025°19'1 1.0
2018-Jan-08 11:30N 37°26' E 025°19'0 0.0
2018-Jan-08 11:00N 37°26' E 025°19'0 0.0
2018-Jan-08 10:30N 37°26' E 025°19'0 0.0
2018-Jan-08 10:00N 37°26' E 025°19'0 0.0
2018-Jan-08 09:30N 37°26' E 025°19'0 0.0
2018-Jan-08 09:00N 37°26' E 025°19'0 0.0
2018-Jan-08 08:30N 37°26' E 025°19'0 0.0
2018-Jan-08 08:00N 37°26' E 025°19'0 0.0
2018-Jan-08 07:30N 37°26' E 025°19'0 0.0
2018-Jan-08 07:00N 37°26' E 025°19'0 0.0
2018-Jan-08 06:30N 37°26' E 025°19'0 0.1
2018-Jan-08 06:00N 37°26' E 025°19'7 0.6
2018-Jan-07 16:49N 37°32' E 025°25'3 9.4
2018-Jan-07 16:30N 37°31' E 025°29'5 9.1
2018-Jan-07 16:00N 37°31' E 025°35'4 9.0
2018-Jan-07 15:30N 37°31' E 025°41'5 9.2
2018-Jan-07 14:55N 37°30' E 025°47'4 9.4
2018-Jan-07 14:30N 37°30' E 025°52'5 9.6
2018-Jan-07 14:00N 37°30' E 025°58'5 9.3
2018-Jan-07 13:30N 37°30' E 026°04'5 9.0
2018-Jan-07 13:00N 37°31' E 026°09'4 8.6
2018-Jan-07 12:30N 37°33' E 026°14'4 8.0
2018-Jan-07 12:00N 37°36' E 026°18'0 0.2
2018-Jan-07 11:28N 37°36' E 026°17'0 0.0
2018-Jan-07 11:00N 37°36' E 026°17'0 0.0
2018-Jan-07 10:30N 37°36' E 026°17'0 0.0
2018-Jan-07 10:00N 37°36' E 026°17'0 0.0
2018-Jan-07 09:30N 37°36' E 026°17'0 0.0
2018-Jan-07 09:00N 37°36' E 026°17'0 0.0
2018-Jan-07 08:30N 37°36' E 026°17'0 0.0
2018-Jan-07 07:56N 37°36' E 026°17'0 0.0
2018-Jan-07 07:30N 37°36' E 026°17'0 0.0
2018-Jan-07 07:00N 37°36' E 026°17'0 0.0
2018-Jan-07 06:30N 37°36' E 026°17'0 0.2
2018-Jan-07 06:00N 37°36' E 026°18'1 1.5
2018-Jan-07 05:29N 37°37' E 026°18'0 0.0
2018-Jan-07 03:09N 37°37' E 026°18'0 0.0
2018-Jan-07 03:00N 37°37' E 026°18'0 0.0
2018-Jan-07 02:30N 37°37' E 026°18'0 0.1
2018-Jan-07 02:00N 37°37' E 026°18'0 0.1
2018-Jan-07 01:30N 37°37' E 026°19'0 0.0
2018-Jan-07 00:30N 37°37' E 026°19'0 0.0
2018-Jan-07 00:00N 37°37' E 026°19'0 0.1
2018-Jan-06 23:30N 37°37' E 026°18'0 0.1
2018-Jan-06 23:00N 37°37' E 026°18'0 0.1
2018-Jan-06 22:30N 37°37' E 026°18'0 0.1
2018-Jan-06 22:00N 37°37' E 026°19'0 0.0
2018-Jan-06 21:30N 37°37' E 026°19'0 0.0
2018-Jan-06 21:00N 37°37' E 026°19'0 0.0
2018-Jan-06 20:25N 37°37' E 026°19'0 0.0
2018-Jan-06 19:56N 37°37' E 026°19'0 0.0
2018-Jan-06 19:30N 37°37' E 026°19'0 0.0
2018-Jan-06 19:00N 37°37' E 026°19'0 0.0
2018-Jan-06 18:30N 37°37' E 026°19'0 0.1
2018-Jan-06 18:00N 37°37' E 026°19'0 0.1
2018-Jan-06 17:30N 37°37' E 026°18'0 0.0
2018-Jan-06 17:00N 37°37' E 026°18'0 0.0
2018-Jan-06 16:26N 37°37' E 026°18'0 0.0
2018-Jan-06 16:00N 37°37' E 026°18'0 0.0
2018-Jan-06 15:30N 37°37' E 026°18'0 0.0
2018-Jan-06 15:00N 37°37' E 026°18'0 0.0
2018-Jan-06 14:30N 37°37' E 026°18'0 0.0
2018-Jan-06 14:00N 37°37' E 026°18'0 0.0
2018-Jan-06 13:30N 37°37' E 026°18'0 0.0
2018-Jan-06 13:00N 37°37' E 026°18'0 0.0
2018-Jan-06 12:30N 37°37' E 026°18'0 0.0
2018-Jan-06 12:00N 37°37' E 026°18'0 0.0
2018-Jan-06 11:30N 37°37' E 026°18'0 0.0
2018-Jan-06 11:00N 37°37' E 026°18'0 0.0
2018-Jan-06 10:30N 37°37' E 026°18'0 0.0
2018-Jan-06 10:00N 37°37' E 026°18'0 0.0
2018-Jan-06 09:30N 37°37' E 026°18'0 0.0
2018-Jan-06 09:00N 37°37' E 026°18'0 0.0
2018-Jan-06 08:29N 37°37' E 026°18'0 0.0
2018-Jan-06 08:00N 37°37' E 026°18'0 0.0
2018-Jan-06 07:30N 37°37' E 026°18'0 0.0
2018-Jan-06 06:58N 37°37' E 026°18'0 0.1
2018-Jan-06 06:30N 37°37' E 026°18'0 0.0
2018-Jan-06 05:59N 37°37' E 026°18'0 0.0
2018-Jan-06 05:30N 37°37' E 026°18'0 0.0
2018-Jan-06 04:59N 37°37' E 026°18'0 0.0
2018-Jan-06 04:29N 37°37' E 026°18'0 0.0
2018-Jan-06 04:00N 37°37' E 026°19'0 0.1
2018-Jan-06 03:30N 37°37' E 026°18'0 0.0
2018-Jan-06 03:00N 37°37' E 026°18'0 0.0
2018-Jan-06 02:30N 37°37' E 026°19'0 0.0
2018-Jan-06 02:00N 37°37' E 026°18'0 0.0
2018-Jan-06 01:30N 37°37' E 026°18'0 0.0
2018-Jan-06 00:59N 37°37' E 026°18'0 0.0
2018-Jan-06 00:30N 37°37' E 026°18'0 0.0
2018-Jan-05 23:59N 37°37' E 026°18'0 0.0
2018-Jan-05 23:30N 37°37' E 026°18'0 0.1
2018-Jan-05 23:00N 37°37' E 026°18'0 0.0
2018-Jan-05 22:30N 37°37' E 026°18'0 0.0
2018-Jan-05 21:59N 37°37' E 026°18'0 0.0
2018-Jan-05 21:30N 37°37' E 026°18'0 0.0
2018-Jan-05 21:00N 37°37' E 026°18'0 0.0
2018-Jan-05 20:27N 37°37' E 026°18'0 0.0
2018-Jan-05 19:53N 37°37' E 026°18'0 0.0
2018-Jan-05 19:24N 37°37' E 026°18'0 0.0
2018-Jan-05 19:00N 37°37' E 026°18'0 0.0
2018-Jan-05 18:30N 37°37' E 026°18'0 0.0
2018-Jan-05 18:00N 37°37' E 026°18'0 0.0
2018-Jan-05 17:30N 37°37' E 026°18'0 0.1
2018-Jan-05 17:00N 37°37' E 026°19'3 5.7
2018-Jan-05 16:30N 37°35' E 026°16'5 9.4
2018-Jan-05 16:00N 37°32' E 026°12'5 9.0
2018-Jan-05 15:30N 37°28' E 026°08'4 8.7
2018-Jan-05 15:00N 37°25' E 026°04'4 7.6
2018-Jan-05 14:30N 37°22' E 026°01'3 6.0
2018-Jan-05 14:00N 37°20' E 025°58'3 5.8
2018-Jan-05 13:30N 37°18' E 025°56'3 5.4
2018-Jan-05 13:00N 37°16' E 025°54'3 5.2
2018-Jan-05 12:30N 37°14' E 025°52'2 4.9
2018-Jan-05 12:01N 37°12' E 025°50'2 4.8
2018-Jan-05 11:31N 37°10' E 025°48'2 4.6
2018-Jan-05 11:00N 37°09' E 025°46'2 4.1
2018-Jan-05 10:31N 37°07' E 025°45'2 4.5
2018-Jan-05 10:00N 37°05' E 025°46'3 5.0
2018-Jan-05 09:30N 37°02' E 025°47'2 5.0
2018-Jan-05 09:01N 37°00' E 025°49'3 5.0
2018-Jan-05 08:30N 36°58' E 025°51'2 4.8
2018-Jan-05 08:00N 36°57' E 025°53'2 4.9
2018-Jan-05 07:30N 36°55' E 025°55'2 4.6
2018-Jan-05 07:00N 36°54' E 025°58'0 0.9
2018-Jan-05 06:30N 36°54' E 025°58'0 0.1
2018-Jan-05 06:00N 36°54' E 025°58'0 0.0
2018-Jan-05 05:30N 36°54' E 025°58'0 0.0
2018-Jan-05 05:00N 36°54' E 025°58'0 0.0
2018-Jan-05 04:31N 36°54' E 025°58'0 0.0
2018-Jan-05 04:01N 36°54' E 025°58'0 0.1
2018-Jan-05 03:30N 36°54' E 025°58'0 0.1
2018-Jan-05 03:00N 36°54' E 025°58'0 0.2
2018-Jan-05 02:30N 36°54' E 025°58'0 0.1
2018-Jan-05 02:00N 36°54' E 025°58'0 0.0
2018-Jan-05 01:30N 36°54' E 025°58'0 0.0
2018-Jan-05 00:57N 36°54' E 025°58'0 0.0
2018-Jan-05 00:30N 36°54' E 025°58'0 0.0
2018-Jan-05 00:00N 36°54' E 025°58'0 0.0
2018-Jan-04 23:30N 36°54' E 025°58'0 0.0
2018-Jan-04 22:57N 36°54' E 025°58'0 0.0
2018-Jan-04 22:31N 36°54' E 025°58'0 0.1
2018-Jan-04 22:00N 36°54' E 025°58'0 0.1
2018-Jan-04 21:30N 36°54' E 025°58'0 0.1
2018-Jan-04 20:57N 36°54' E 025°58'0 0.0
2018-Jan-04 20:30N 36°54' E 025°58'0 0.1
2018-Jan-04 20:01N 36°54' E 025°58'0 0.2
2018-Jan-04 19:30N 36°54' E 025°58'0 0.0
2018-Jan-04 19:00N 36°54' E 025°58'0 0.1
2018-Jan-04 18:27N 36°54' E 025°58'0 0.0
2018-Jan-04 18:00N 36°54' E 025°58'0 0.1
2018-Jan-04 17:30N 36°54' E 025°58'0 0.3
2018-Jan-04 17:00N 36°54' E 025°58'0 0.3
2018-Jan-04 16:30N 36°54' E 025°58'0 0.1
2018-Jan-04 16:00N 36°54' E 025°58'0 0.1
2018-Jan-04 15:30N 36°54' E 025°58'0 0.0
2018-Jan-04 15:00N 36°54' E 025°58'0 0.2
2018-Jan-04 14:28N 36°54' E 025°58'2 4.2
2018-Jan-04 14:00N 36°55' E 025°56'3 6.1
2018-Jan-04 13:30N 36°56' E 025°53'4 8.5
2018-Jan-04 13:00N 36°53' E 025°50'3 3.9
2018-Jan-04 12:09N 36°50' E 025°52'0 0.0
2018-Jan-04 11:57N 36°50' E 025°52'0 0.0
2018-Jan-04 11:27N 36°50' E 025°52'0 0.0
2018-Jan-04 11:00N 36°50' E 025°52'0 0.0
2018-Jan-04 10:30N 36°50' E 025°52'0 0.0
2018-Jan-04 10:00N 36°50' E 025°52'0 0.0
2018-Jan-04 09:30N 36°50' E 025°52'0 0.0
2018-Jan-04 09:00N 36°50' E 025°52'0 0.0
2018-Jan-04 08:30N 36°50' E 025°52'0 0.0
2018-Jan-04 08:00N 36°50' E 025°52'0 0.0
2018-Jan-04 07:30N 36°50' E 025°52'0 0.0
2018-Jan-04 06:57N 36°50' E 025°52'0 0.0
2018-Jan-04 06:30N 36°50' E 025°52'0 0.0
2018-Jan-04 06:00N 36°50' E 025°52'0 0.0
2018-Jan-04 05:30N 36°50' E 025°52'0 0.0
2018-Jan-04 04:51N 36°50' E 025°52'0 0.0
2018-Jan-04 04:24N 36°50' E 025°52'0 0.0
2018-Jan-04 03:57N 36°50' E 025°52'0 0.0
2018-Jan-04 03:30N 36°50' E 025°52'0 0.0
2018-Jan-04 03:00N 36°50' E 025°52'0 0.0
2018-Jan-04 02:27N 36°50' E 025°52'0 0.0
2018-Jan-04 02:00N 36°50' E 025°52'0 0.0
2018-Jan-04 01:30N 36°50' E 025°52'0 0.0
2018-Jan-04 01:00N 36°50' E 025°52'0 0.0
2018-Jan-04 00:30N 36°50' E 025°52'0 0.0
2018-Jan-04 00:00N 36°50' E 025°52'0 0.0
2018-Jan-03 23:30N 36°50' E 025°52'0 0.0
2018-Jan-03 23:00N 36°50' E 025°52'0 0.0
2018-Jan-03 22:30N 36°50' E 025°52'0 0.0
2018-Jan-03 22:00N 36°50' E 025°52'0 0.0
2018-Jan-03 21:30N 36°50' E 025°52'0 0.0
2018-Jan-03 21:00N 36°50' E 025°52'0 0.0
2018-Jan-03 20:30N 36°50' E 025°52'0 0.0
2018-Jan-03 20:00N 36°50' E 025°52'0 0.0
2018-Jan-03 19:30N 36°50' E 025°52'0 0.0
2018-Jan-03 19:00N 36°50' E 025°52'0 0.0
2018-Jan-03 18:30N 36°50' E 025°52'0 0.0
2018-Jan-03 18:00N 36°50' E 025°52'0 0.0
2018-Jan-03 17:30N 36°50' E 025°52'0 0.0
2018-Jan-03 17:00N 36°50' E 025°52'0 0.0
2018-Jan-03 16:30N 36°50' E 025°52'0 0.0
2018-Jan-03 16:00N 36°50' E 025°52'0 0.0
2018-Jan-03 15:30N 36°50' E 025°52'0 0.0
2018-Jan-03 15:00N 36°50' E 025°52'0 0.0
2018-Jan-03 14:30N 36°50' E 025°52'0 0.0
2018-Jan-03 14:00N 36°50' E 025°52'0 0.0
2018-Jan-03 13:30N 36°50' E 025°52'0 0.0
2018-Jan-03 13:00N 36°50' E 025°52'0 0.0
2018-Jan-03 12:30N 36°50' E 025°52'0 0.0
2018-Jan-03 11:54N 36°50' E 025°52'0 0.0
2018-Jan-03 11:24N 36°50' E 025°52'0 0.0
2018-Jan-03 10:57N 36°50' E 025°52'0 0.0
2018-Jan-03 10:30N 36°50' E 025°52'0 0.0
2018-Jan-03 10:00N 36°50' E 025°52'0 0.0
2018-Jan-03 09:30N 36°50' E 025°52'0 0.0
2018-Jan-03 09:00N 36°50' E 025°52'0 0.0
2018-Jan-03 08:30N 36°50' E 025°52'0 0.0
2018-Jan-03 07:54N 36°50' E 025°52'1 2.8
2018-Jan-03 07:30N 36°50' E 025°50'0 0.6
2018-Jan-03 06:59N 36°49' E 025°51'0 0.1
2018-Jan-03 06:29N 36°49' E 025°51'0 0.0
2018-Jan-03 05:59N 36°49' E 025°51'0 0.0
2018-Jan-03 05:29N 36°49' E 025°51'0 0.0
2018-Jan-03 04:59N 36°49' E 025°51'0 0.0
2018-Jan-03 04:29N 36°49' E 025°51'0 0.0
2018-Jan-03 03:59N 36°49' E 025°51'0 0.0
2018-Jan-03 03:26N 36°49' E 025°51'0 0.0
2018-Jan-03 02:59N 36°49' E 025°51'0 0.0
2018-Jan-03 02:29N 36°49' E 025°51'0 0.0
2018-Jan-03 01:59N 36°49' E 025°51'0 0.0
2018-Jan-03 01:29N 36°49' E 025°51'0 0.0
2018-Jan-03 00:59N 36°49' E 025°51'0 0.0
2018-Jan-03 00:29N 36°49' E 025°51'0 0.0
2018-Jan-02 23:59N 36°49' E 025°51'0 0.8
2018-Jan-02 23:30N 36°50' E 025°50'2 4.5
2018-Jan-02 23:00N 36°52' E 025°49'3 6.9
2018-Jan-02 22:30N 36°54' E 025°52'4 7.2
2018-Jan-02 22:00N 36°56' E 025°56'4 7.5
2018-Jan-02 21:30N 36°58' E 026°00'4 7.5
2018-Jan-02 21:00N 36°58' E 026°05'4 7.7
2018-Jan-02 20:30N 36°57' E 026°10'4 7.2
2018-Jan-02 19:59N 36°55' E 026°14'3 7.0
2018-Jan-02 19:30N 36°53' E 026°16'3 6.5
2018-Jan-02 19:00N 36°50' E 026°19'3 6.1
2018-Jan-02 18:30N 36°48' E 026°21'3 6.2
2018-Jan-02 18:00N 36°45' E 026°24'3 6.5
2018-Jan-02 17:30N 36°42' E 026°25'4 7.2
2018-Jan-02 17:00N 36°39' E 026°27'5 7.7
2018-Jan-02 16:25N 36°36' E 026°31'4 8.5
2018-Jan-02 15:59N 36°32' E 026°31'4 8.4
2018-Jan-02 15:28N 36°31' E 026°25'  

Dump ship's entire track history